Time;durP1;ratioP1;P1;durP2;ratioP2;P2;SDS_P1;SDS_P2;PMS_P1;PMS_P2;Temp;Humidity;BMP_temperature;BMP_pressure;BME280_temperature;BME280_humidity;BME280_pressure;Samples;Min_cycle;Max_cycle;Signal;HPM_P1;HPM_P2
2022/08/24 00:00:09;;;;;;;10.10;9.30;;;23.50;96.00;;;;;;5003314;28;20487;-67
2022/08/24 00:02:35;;;;;;;10.43;9.60;;;23.50;96.50;;;;;;5004264;28;20710;-67
2022/08/24 00:05:00;;;;;;;11.23;10.27;;;23.50;96.70;;;;;;5003905;28;20446;-66
2022/08/24 00:07:26;;;;;;;12.93;11.93;;;23.60;96.80;;;;;;5003410;28;20175;-67
2022/08/24 00:09:52;;;;;;;10.67;9.63;;;23.60;97.00;;;;;;5003289;28;21314;-67
2022/08/24 00:12:18;;;;;;;10.87;9.97;;;23.60;97.10;;;;;;5002780;28;20528;-66
2022/08/24 00:14:44;;;;;;;10.63;9.87;;;23.60;97.00;;;;;;5003071;28;20192;-70
2022/08/24 00:17:10;;;;;;;11.60;10.80;;;23.60;97.20;;;;;;4991049;28;20628;-66
2022/08/24 00:19:37;;;;;;;11.17;10.23;;;23.60;97.30;;;;;;4986610;28;20180;-66
2022/08/24 00:22:03;;;;;;;10.80;10.07;;;23.60;97.00;;;;;;5009838;28;20418;-66
2022/08/24 00:24:28;;;;;;;11.30;10.40;;;23.60;97.10;;;;;;5014842;28;20769;-66
2022/08/24 00:26:54;;;;;;;10.40;9.60;;;23.60;96.80;;;;;;5012897;28;20189;-66
2022/08/24 00:29:21;;;;;;;10.67;9.77;;;23.60;97.00;;;;;;5012932;28;20187;-66
2022/08/24 00:31:48;;;;;;;10.57;9.70;;;23.60;96.80;;;;;;4995095;28;20225;-70
2022/08/24 00:34:16;;;;;;;10.77;9.80;;;23.60;96.40;;;;;;4995415;28;20423;-66
2022/08/24 00:36:42;;;;;;;10.23;9.20;;;23.60;96.60;;;;;;5005626;28;20441;-66
2022/08/24 00:39:08;;;;;;;10.93;9.87;;;23.60;96.70;;;;;;5000716;28;20476;-66
2022/08/24 00:41:38;;;;;;;17.33;9.83;;;23.60;96.90;;;;;;5014887;28;20410;-66
2022/08/24 00:44:05;;;;;;;11.53;10.00;;;23.60;97.20;;;;;;5013163;28;20430;-66
2022/08/24 00:46:42;;;;;;;10.90;9.97;;;23.60;97.10;;;;;;5013555;28;20787;-66
2022/08/24 00:49:27;;;;;;;10.13;9.30;;;23.60;97.10;;;;;;5012742;28;20441;-66
2022/08/24 00:52:03;;;;;;;10.00;9.13;;;23.60;96.90;;;;;;5013781;28;20561;-66
2022/08/24 00:54:32;;;;;;;9.77;8.90;;;23.50;96.80;;;;;;5013792;28;20472;-66
2022/08/24 00:57:03;;;;;;;11.87;10.97;;;23.50;97.00;;;;;;4994640;28;20430;-66
2022/08/24 00:59:35;;;;;;;10.77;10.00;;;23.50;97.00;;;;;;5011615;28;20406;-66
2022/08/24 01:02:09;;;;;;;11.10;10.20;;;23.40;97.00;;;;;;5013392;28;20418;-66
2022/08/24 01:04:42;;;;;;;11.20;9.50;;;23.40;97.20;;;;;;5013345;28;20430;-66
2022/08/24 01:07:08;;;;;;;10.80;9.90;;;23.40;97.10;;;;;;5012809;28;20437;-66
2022/08/24 01:09:34;;;;;;;9.67;8.97;;;23.30;97.00;;;;;;5013313;28;20525;-66
2022/08/24 01:12:00;;;;;;;11.00;9.97;;;23.30;97.20;;;;;;5013360;28;20242;-66
2022/08/24 01:14:25;;;;;;;11.00;9.90;;;23.30;97.10;;;;;;5014136;28;20627;-66
2022/08/24 01:19:49;;;;;;;10.13;9.37;;;23.20;97.30;;;;;;5012048;28;20414;-66
2022/08/24 01:22:20;;;;;;;10.77;9.97;;;23.20;97.50;;;;;;5011507;28;20429;-66
2022/08/24 01:24:46;;;;;;;10.23;9.33;;;23.10;97.50;;;;;;5013873;28;20493;-71
2022/08/24 01:27:14;;;;;;;10.67;9.87;;;23.10;97.50;;;;;;5012407;28;20426;-66
2022/08/24 01:29:42;;;;;;;10.13;9.20;;;23.10;97.60;;;;;;5012147;28;20901;-66
2022/08/24 01:32:08;;;;;;;9.47;8.77;;;23.10;97.80;;;;;;5013073;28;21154;-66
2022/08/24 01:34:35;;;;;;;9.70;9.00;;;23.10;97.80;;;;;;5012366;28;20410;-67
2022/08/24 01:37:02;;;;;;;10.33;9.43;;;23.00;98.00;;;;;;5004967;28;20448;-66
2022/08/24 01:39:33;;;;;;;10.80;10.00;;;23.00;98.00;;;;;;5002259;28;20517;-66
2022/08/24 01:42:00;;;;;;;10.37;9.60;;;23.00;98.00;;;;;;5013251;28;20402;-66
2022/08/24 01:44:30;;;;;;;10.70;9.90;;;23.00;98.20;;;;;;5028988;28;20885;-66
2022/08/24 01:46:56;;;;;;;10.33;9.47;;;22.90;98.30;;;;;;5017448;28;20787;-66
2022/08/24 01:49:27;;;;;;;10.60;9.80;;;22.90;98.30;;;;;;5009947;28;20438;-66
2022/08/24 01:51:54;;;;;;;10.57;9.87;;;22.80;98.30;;;;;;5011381;28;21095;-66
2022/08/24 01:54:20;;;;;;;9.67;8.97;;;22.80;98.40;;;;;;5013497;28;20413;-66
2022/08/24 01:56:46;;;;;;;9.97;9.13;;;22.80;98.50;;;;;;4993314;28;20465;-68
2022/08/24 01:59:12;;;;;;;11.43;10.40;;;22.80;98.60;;;;;;5011629;28;21035;-66
2022/08/24 02:01:41;;;;;;;11.00;10.17;;;22.70;98.50;;;;;;5013305;28;20190;-66
2022/08/24 02:04:08;;;;;;;11.00;10.10;;;22.70;98.50;;;;;;5012696;28;20474;-66
2022/08/24 02:06:34;;;;;;;12.57;11.57;;;22.70;98.70;;;;;;5011819;28;20612;-66
2022/08/24 02:09:00;;;;;;;11.17;10.13;;;22.70;98.90;;;;;;5011735;28;20437;-66
2022/08/24 02:11:26;;;;;;;11.90;11.00;;;22.70;99.00;;;;;;5012498;28;20469;-66
2022/08/24 02:13:52;;;;;;;12.53;11.40;;;22.70;99.10;;;;;;5012239;28;20432;-71
2022/08/24 02:16:18;;;;;;;13.37;12.13;;;22.70;99.10;;;;;;5012216;28;20432;-66
2022/08/24 02:18:45;;;;;;;12.37;11.47;;;22.70;98.90;;;;;;5010669;28;20438;-66
2022/08/24 02:21:11;;;;;;;12.00;10.87;;;22.60;98.90;;;;;;5011744;28;20454;-68
2022/08/24 02:23:40;;;;;;;11.60;10.80;;;22.60;98.90;;;;;;5012922;28;20414;-66
2022/08/24 02:26:08;;;;;;;11.23;10.53;;;22.60;99.20;;;;;;5011298;28;20473;-66
2022/08/24 02:28:35;;;;;;;11.97;10.93;;;22.60;99.20;;;;;;5012054;28;20473;-66
2022/08/24 02:31:01;;;;;;;11.47;10.57;;;22.60;99.30;;;;;;5011544;28;20425;-67
2022/08/24 02:33:27;;;;;;;10.73;10.03;;;22.50;99.40;;;;;;5013063;28;20452;-66
2022/08/24 02:35:53;;;;;;;10.77;9.97;;;22.50;99.60;;;;;;4999757;28;20430;-71
2022/08/24 02:38:19;;;;;;;10.43;9.73;;;22.50;99.60;;;;;;5010044;28;20183;-66
2022/08/24 02:40:45;;;;;;;11.13;10.23;;;22.40;99.50;;;;;;5012524;28;20765;-66
2022/08/24 02:43:11;;;;;;;11.20;10.30;;;22.40;99.40;;;;;;4996404;28;20435;-66
2022/08/24 02:45:42;;;;;;;11.27;10.37;;;22.40;99.60;;;;;;4992767;28;20419;-66
2022/08/24 02:48:09;;;;;;;11.00;10.13;;;22.40;99.80;;;;;;5008464;28;20196;-67
2022/08/24 02:50:40;;;;;;;11.13;10.33;;;22.40;99.90;;;;;;5012179;28;20418;-66
2022/08/24 02:53:06;;;;;;;12.20;11.30;;;22.40;99.90;;;;;;4960869;28;20815;-66
2022/08/24 02:55:32;;;;;;;12.67;11.60;;;22.30;99.90;;;;;;5011782;28;20429;-66
2022/08/24 02:57:57;;;;;;;11.33;10.57;;;22.30;99.90;;;;;;5010256;28;20515;-67
2022/08/24 03:00:24;;;;;;;11.90;10.77;;;22.30;99.90;;;;;;5011376;28;20221;-66
2022/08/24 03:02:51;;;;;;;12.10;11.20;;;22.20;99.90;;;;;;5012451;28;20725;-66
2022/08/24 03:05:16;;;;;;;12.37;11.37;;;22.20;99.90;;;;;;5009464;28;20540;-66
2022/08/24 03:07:42;;;;;;;11.20;10.40;;;22.20;99.90;;;;;;5011782;28;20520;-68
2022/08/24 03:10:09;;;;;;;11.37;10.47;;;22.20;99.90;;;;;;5014659;28;21182;-66
2022/08/24 03:12:35;;;;;;;11.70;10.90;;;22.10;99.90;;;;;;5016451;28;20231;-66
2022/08/24 03:15:02;;;;;;;11.40;10.60;;;22.10;99.90;;;;;;5015787;28;20458;-67
2022/08/24 03:17:32;;;;;;;12.20;11.30;;;22.10;99.90;;;;;;5015541;28;20190;-66
2022/08/24 03:19:59;;;;;;;11.90;10.80;;;22.10;99.90;;;;;;5015038;28;20422;-69
2022/08/24 03:22:26;;;;;;;11.77;10.57;;;22.10;99.90;;;;;;5016370;28;20491;-66
2022/08/24 03:24:52;;;;;;;12.13;11.23;;;22.10;99.90;;;;;;5016269;28;20418;-66
2022/08/24 03:27:18;;;;;;;11.60;10.60;;;22.10;99.90;;;;;;4996261;28;20433;-66
2022/08/24 03:29:43;;;;;;;11.87;11.07;;;22.10;99.90;;;;;;5013131;28;20532;-66
2022/08/24 03:32:10;;;;;;;12.50;11.33;;;22.00;99.90;;;;;;5014713;28;21059;-66
2022/08/24 03:34:36;;;;;;;11.23;10.43;;;22.00;99.90;;;;;;5015238;28;20270;-67
2022/08/24 03:37:03;;;;;;;11.13;10.33;;;22.00;99.90;;;;;;5012739;28;20495;-67
2022/08/24 03:39:29;;;;;;;15.00;14.00;;;22.00;99.90;;;;;;5013066;28;20481;-66
2022/08/24 03:41:55;;;;;;;11.57;10.50;;;22.00;99.90;;;;;;5015367;28;20418;-71
2022/08/24 03:44:23;;;;;;;11.77;11.07;;;21.90;99.90;;;;;;5015591;28;20193;-66
2022/08/24 03:46:50;;;;;;;10.13;9.33;;;21.90;99.90;;;;;;5014169;28;20436;-66
2022/08/24 03:49:17;;;;;;;12.13;11.23;;;21.80;99.90;;;;;;4994742;28;20433;-66
2022/08/24 03:51:42;;;;;;;12.47;11.70;;;21.80;99.90;;;;;;5015436;28;20457;-65
2022/08/24 03:54:09;;;;;;;10.70;9.80;;;21.80;99.90;;;;;;5014194;28;20441;-65
2022/08/24 03:56:35;;;;;;;13.20;12.30;;;21.80;99.90;;;;;;4997080;28;20215;-65
2022/08/24 03:59:02;;;;;;;11.30;10.40;;;21.80;99.90;;;;;;4997714;28;20421;-65
2022/08/24 04:01:27;;;;;;;10.83;10.00;;;21.80;99.90;;;;;;5015044;28;20928;-65
2022/08/24 04:03:54;;;;;;;10.77;10.13;;;21.80;99.90;;;;;;5015193;28;20461;-65
2022/08/24 04:06:21;;;;;;;10.97;10.27;;;21.70;99.90;;;;;;5013901;28;20186;-66
2022/08/24 04:08:47;;;;;;;10.87;9.97;;;21.70;99.90;;;;;;5014726;28;20421;-66
2022/08/24 04:11:17;;;;;;;11.40;10.60;;;21.70;99.90;;;;;;5013635;28;20909;-66
2022/08/24 04:13:44;;;;;;;10.93;10.23;;;21.70;99.90;;;;;;5015341;28;20409;-66
2022/08/24 04:16:13;;;;;;;10.53;9.80;;;21.60;99.90;;;;;;5013604;28;20464;-66
2022/08/24 04:18:40;;;;;;;11.17;10.37;;;21.60;99.90;;;;;;5014418;28;20472;-66
2022/08/24 04:21:06;;;;;;;11.97;10.97;;;21.60;99.90;;;;;;5013129;28;20748;-66
2022/08/24 04:23:33;;;;;;;11.07;10.37;;;21.60;99.90;;;;;;5013755;28;20497;-66
2022/08/24 04:26:03;;;;;;;10.60;9.90;;;21.60;99.90;;;;;;5014337;28;20929;-71
2022/08/24 04:28:30;;;;;;;10.80;9.13;;;21.60;99.90;;;;;;4996224;28;20437;-66
2022/08/24 04:30:56;;;;;;;10.87;9.90;;;21.60;99.90;;;;;;4995374;28;20816;-65
2022/08/24 04:33:22;;;;;;;10.60;9.90;;;21.60;99.90;;;;;;5001924;28;20469;-65
2022/08/24 04:35:49;;;;;;;11.23;10.20;;;21.60;99.90;;;;;;5014948;28;20211;-66
2022/08/24 04:38:16;;;;;;;10.27;9.57;;;21.60;99.90;;;;;;5009053;28;20438;-66
2022/08/24 04:40:44;;;;;;;9.60;8.90;;;21.50;99.90;;;;;;5014987;28;20406;-66
2022/08/24 04:43:11;;;;;;;11.60;10.53;;;21.50;99.90;;;;;;5013900;28;20513;-66
2022/08/24 04:45:42;;;;;;;13.00;11.70;;;21.50;99.90;;;;;;5023507;28;20422;-67
2022/08/24 04:48:08;;;;;;;12.70;11.70;;;21.60;99.90;;;;;;5010515;28;20549;-66
2022/08/24 04:50:36;;;;;;;10.53;9.70;;;21.50;99.90;;;;;;5014115;28;20973;-65
2022/08/24 04:53:03;;;;;;;11.33;10.50;;;21.50;99.90;;;;;;5013759;28;20445;-72
2022/08/24 04:55:29;;;;;;;12.60;11.70;;;21.50;99.90;;;;;;5006588;28;20461;-65
2022/08/24 04:57:54;;;;;;;11.90;10.90;;;21.40;99.90;;;;;;4993454;28;20438;-68
2022/08/24 05:00:20;;;;;;;11.90;11.00;;;21.40;99.90;;;;;;5010526;28;20434;-66
2022/08/24 05:02:46;;;;;;;12.23;11.33;;;21.40;99.90;;;;;;5013160;28;20744;-66
2022/08/24 05:05:12;;;;;;;12.20;11.40;;;21.40;99.90;;;;;;5013358;28;20225;-66
2022/08/24 05:07:37;;;;;;;12.80;11.80;;;21.40;99.90;;;;;;5013414;28;20183;-66
2022/08/24 05:10:05;;;;;;;12.83;11.63;;;21.40;99.90;;;;;;5009896;28;20233;-67
2022/08/24 05:12:31;;;;;;;13.17;12.20;;;21.40;99.90;;;;;;5012681;28;20264;-65
2022/08/24 05:14:57;;;;;;;13.67;12.67;;;21.50;99.90;;;;;;5001448;28;20430;-66
2022/08/24 05:17:25;;;;;;;14.20;13.10;;;21.50;99.90;;;;;;5002439;28;20438;-66
2022/08/24 05:19:51;;;;;;;11.73;10.73;;;21.50;99.90;;;;;;4994201;28;20464;-66
2022/08/24 05:22:18;;;;;;;14.43;13.10;;;21.50;99.90;;;;;;5012060;28;20528;-66
2022/08/24 05:24:44;;;;;;;18.03;13.77;;;21.50;99.90;;;;;;4994044;28;20209;-66
2022/08/24 05:27:09;;;;;;;15.90;14.63;;;21.50;99.90;;;;;;4998060;28;20521;-66
2022/08/24 05:29:36;;;;;;;14.80;13.60;;;21.50;99.90;;;;;;5004420;28;20189;-66
2022/08/24 05:32:02;;;;;;;15.93;14.67;;;21.50;99.90;;;;;;5010482;28;20227;-67
2022/08/24 05:34:28;;;;;;;17.90;16.27;;;21.50;99.90;;;;;;5011998;28;20425;-66
2022/08/24 05:36:53;;;;;;;15.40;14.20;;;21.60;99.90;;;;;;4998762;28;20441;-66
2022/08/24 05:39:19;;;;;;;14.80;13.20;;;21.60;99.90;;;;;;5008683;28;20191;-66
2022/08/24 05:41:45;;;;;;;13.43;12.17;;;21.70;99.90;;;;;;5013539;28;20198;-66
2022/08/24 05:44:14;;;;;;;15.20;13.70;;;21.80;99.90;;;;;;5010606;28;20782;-66
2022/08/24 05:46:40;;;;;;;14.30;13.00;;;22.00;99.90;;;;;;5012651;28;20466;-66
2022/08/24 05:49:07;;;;;;;20.50;18.60;;;22.20;99.90;;;;;;4991929;28;20488;-66
2022/08/24 05:51:33;;;;;;;18.00;16.43;;;22.40;99.90;;;;;;5013375;28;20461;-66
2022/08/24 05:53:59;;;;;;;14.83;13.43;;;22.60;99.90;;;;;;5013584;28;20414;-66
2022/08/24 05:56:25;;;;;;;17.07;13.80;;;22.80;99.40;;;;;;5012262;28;20769;-68
2022/08/24 05:58:51;;;;;;;12.57;11.50;;;23.00;99.20;;;;;;5013176;28;20425;-66
2022/08/24 06:01:22;;;;;;;14.17;12.63;;;23.10;98.80;;;;;;5013166;28;20552;-66
2022/08/24 06:03:50;;;;;;;14.20;13.00;;;23.30;98.40;;;;;;5012584;28;20288;-66
2022/08/24 06:06:17;;;;;;;15.30;14.20;;;23.40;98.30;;;;;;5008162;28;20435;-67
2022/08/24 06:08:46;;;;;;;14.00;12.23;;;23.50;97.20;;;;;;5009260;28;20914;-66
2022/08/24 06:11:26;;;;;;;13.67;12.47;;;23.60;96.80;;;;;;5012210;28;20414;-69
2022/08/24 06:13:53;;;;;;;14.90;13.63;;;23.60;96.60;;;;;;5008405;28;20945;-67
2022/08/24 06:16:19;;;;;;;12.47;11.57;;;23.80;96.40;;;;;;5012715;28;20491;-67
2022/08/24 06:18:45;;;;;;;11.33;10.53;;;23.80;96.00;;;;;;5008393;28;20437;-67
2022/08/24 06:21:13;;;;;;;12.10;11.20;;;23.90;96.00;;;;;;4994708;28;20418;-67
2022/08/24 06:23:40;;;;;;;13.60;11.83;;;23.90;95.90;;;;;;5012302;28;20175;-66
2022/08/24 06:28:52;;;;;;;10.90;9.27;;;24.10;95.30;;;;;;5012658;28;20471;-66
2022/08/24 06:31:19;;;;;;;11.30;10.10;;;24.10;94.80;;;;;;4945627;28;20881;-66
2022/08/24 06:33:46;;;;;;;10.13;9.33;;;24.10;94.70;;;;;;5009848;28;20477;-66
2022/08/24 06:36:13;;;;;;;10.77;9.87;;;24.20;95.60;;;;;;5010894;28;20440;-67
2022/08/24 06:38:39;;;;;;;11.73;10.50;;;24.30;95.00;;;;;;5008678;28;20434;-67
2022/08/24 06:41:06;;;;;;;10.80;9.13;;;24.30;94.40;;;;;;5011737;28;20940;-67
2022/08/24 06:43:32;;;;;;;12.03;11.17;;;24.40;94.60;;;;;;5011692;28;20179;-67
2022/08/24 06:45:58;;;;;;;9.97;9.13;;;24.50;93.80;;;;;;5012369;28;20421;-67
2022/08/24 06:48:24;;;;;;;10.37;9.47;;;24.50;93.70;;;;;;5007956;28;20430;-67
2022/08/24 06:50:51;;;;;;;11.20;10.30;;;24.50;93.40;;;;;;5012923;28;20426;-67
2022/08/24 06:53:18;;;;;;;11.03;9.97;;;24.50;93.40;;;;;;5010647;28;20466;-64
2022/08/24 06:55:53;;;;;;;10.77;9.10;;;24.60;93.50;;;;;;5008263;28;20849;-67
2022/08/24 06:58:20;;;;;;;12.07;10.77;;;24.70;93.90;;;;;;5001871;28;20440;-67
2022/08/24 07:00:46;;;;;;;9.33;8.53;;;24.70;93.90;;;;;;5001437;28;20827;-67
2022/08/24 07:03:14;;;;;;;13.23;8.70;;;24.80;93.30;;;;;;5001634;28;20450;-67
2022/08/24 07:05:50;;;;;;;8.80;7.90;;;24.80;93.80;;;;;;5002222;28;20525;-66
2022/08/24 07:08:17;;;;;;;10.63;9.63;;;24.80;93.40;;;;;;5005939;28;20416;-67
2022/08/24 07:10:42;;;;;;;9.37;8.63;;;24.90;93.70;;;;;;4992172;28;20432;-67
2022/08/24 07:13:10;;;;;;;9.17;8.53;;;24.90;93.60;;;;;;5001603;28;20450;-67
2022/08/24 07:15:35;;;;;;;8.53;7.73;;;24.90;93.50;;;;;;5002379;28;20526;-67
2022/08/24 07:18:01;;;;;;;11.23;9.93;;;25.00;93.90;;;;;;5006262;28;20434;-68
2022/08/24 07:20:29;;;;;;;13.53;12.53;;;25.00;97.00;;;;;;5000520;28;20184;-68
2022/08/24 07:22:55;;;;;;;12.27;11.17;;;25.10;99.60;;;;;;5002549;28;20226;-69
2022/08/24 07:25:21;;;;;;;10.97;9.30;;;25.20;99.30;;;;;;5001623;28;20938;-69
2022/08/24 07:27:47;;;;;;;11.73;10.50;;;25.20;98.20;;;;;;5002183;28;20241;-68
2022/08/24 07:30:13;;;;;;;12.20;11.10;;;25.20;97.20;;;;;;5005215;28;20426;-68
2022/08/24 07:32:38;;;;;;;11.83;10.63;;;25.30;96.90;;;;;;5004339;28;20477;-69
2022/08/24 07:35:05;;;;;;;10.40;9.40;;;25.30;96.10;;;;;;5000756;28;20183;-75
2022/08/24 07:37:30;;;;;;;10.60;9.70;;;25.30;95.80;;;;;;5003605;28;20198;-68
2022/08/24 07:39:56;;;;;;;11.63;10.73;;;25.30;95.40;;;;;;4988084;28;20536;-67
2022/08/24 07:42:23;;;;;;;10.07;9.17;;;25.30;94.70;;;;;;5001566;28;20182;-68
2022/08/24 07:44:50;;;;;;;22.33;19.83;;;25.30;92.40;;;;;;5001164;28;20568;-68
2022/08/24 07:47:17;;;;;;;16.37;13.80;;;25.40;93.40;;;;;;5009353;28;20429;-67
2022/08/24 07:49:43;;;;;;;13.63;11.00;;;25.40;94.20;;;;;;5007940;28;20426;-67
2022/08/24 07:52:09;;;;;;;12.50;11.40;;;25.50;93.70;;;;;;4985167;28;20449;-67
2022/08/24 07:54:35;;;;;;;13.30;12.00;;;25.60;93.40;;;;;;5003954;28;20562;-68
2022/08/24 07:57:02;;;;;;;10.80;9.80;;;25.60;93.30;;;;;;5004633;28;20881;-67
2022/08/24 07:59:28;;;;;;;11.97;10.90;;;25.70;91.30;;;;;;5005784;28;20454;-67
2022/08/24 08:01:54;;;;;;;12.23;11.10;;;25.80;93.40;;;;;;5006906;28;20438;-69
2022/08/24 08:04:23;;;;;;;12.80;11.53;;;25.90;93.50;;;;;;5010216;28;20241;-69
2022/08/24 08:06:48;;;;;;;11.17;10.37;;;25.90;93.30;;;;;;5002146;28;20183;-67
2022/08/24 08:09:14;;;;;;;11.53;10.53;;;26.00;92.70;;;;;;5005592;28;20440;-69
2022/08/24 08:11:40;;;;;;;12.67;11.67;;;26.00;91.90;;;;;;5017299;28;20210;-69
2022/08/24 08:14:06;;;;;;;10.13;9.33;;;26.10;92.30;;;;;;5014327;28;20191;-69
2022/08/24 08:16:32;;;;;;;10.77;9.90;;;26.20;91.50;;;;;;5009053;28;20590;-67
2022/08/24 08:18:58;;;;;;;9.83;9.20;;;26.20;89.00;;;;;;5011574;28;20473;-68
2022/08/24 08:24:14;;;;;;;10.43;8.93;;;26.40;84.60;;;;;;5003076;28;20167;-69
2022/08/24 08:26:40;;;;;;;7.60;7.00;;;26.60;86.30;;;;;;4995815;28;20486;-68
2022/08/24 08:29:09;;;;;;;9.17;8.47;;;26.70;80.70;;;;;;5004721;28;20906;-68
2022/08/24 08:31:36;;;;;;;8.87;8.07;;;26.80;81.80;;;;;;5014411;28;20795;-68
2022/08/24 08:34:02;;;;;;;11.10;10.03;;;26.80;82.70;;;;;;5014778;28;20448;-68
2022/08/24 08:36:28;;;;;;;11.50;9.30;;;26.90;81.80;;;;;;5002482;28;20458;-68
2022/08/24 08:38:54;;;;;;;10.70;9.67;;;27.00;81.10;;;;;;5004179;28;20437;-68
2022/08/24 08:41:58;;;;;;;10.10;9.20;;;27.10;81.40;;;;;;5003270;28;20430;-68
2022/08/24 08:44:44;;;;;;;8.10;7.40;;;27.10;77.10;;;;;;5004110;28;20437;-68
2022/08/24 08:47:48;;;;;;;8.33;7.73;;;27.20;72.90;;;;;;5004232;28;20476;-68
2022/08/24 08:50:24;;;;;;;8.90;8.20;;;27.30;69.80;;;;;;5002789;28;20416;-68
2022/08/24 08:53:39;;;;;;;9.07;8.30;;;27.40;70.80;;;;;;4997843;28;20454;-67
2022/08/24 08:56:16;;;;;;;7.67;6.30;;;27.50;71.90;;;;;;4995291;28;20793;-68
2022/08/24 08:58:48;;;;;;;6.80;6.20;;;27.60;69.10;;;;;;5001220;28;20996;-68
2022/08/24 09:01:26;;;;;;;7.10;6.60;;;27.60;70.10;;;;;;5008405;28;20844;-68
2022/08/24 09:04:25;;;;;;;8.20;7.60;;;27.70;71.90;;;;;;5006080;28;20829;-68
2022/08/24 09:07:07;;;;;;;6.30;5.90;;;27.80;73.40;;;;;;5002714;28;20522;-67
2022/08/24 09:09:39;;;;;;;8.23;7.83;;;27.90;70.80;;;;;;5003393;28;20887;-68
2022/08/24 09:12:15;;;;;;;7.97;7.47;;;27.90;70.90;;;;;;5003676;28;20471;-68
2022/08/24 09:15:00;;;;;;;6.50;6.00;;;28.00;70.50;;;;;;5003915;28;20485;-68
2022/08/24 09:17:40;;;;;;;7.00;6.50;;;28.10;70.60;;;;;;5003269;28;20433;-68
2022/08/24 09:20:18;;;;;;;7.60;7.20;;;28.20;72.20;;;;;;5003793;28;20501;-68
2022/08/24 09:22:47;;;;;;;6.30;5.90;;;28.30;70.90;;;;;;5002995;28;20419;-68
2022/08/24 09:25:38;;;;;;;7.77;7.27;;;28.50;71.30;;;;;;5003289;28;20488;-68
2022/08/24 09:28:15;;;;;;;7.63;6.57;;;28.70;71.50;;;;;;5002967;28;20435;-67
2022/08/24 09:31:02;;;;;;;7.97;5.70;;;28.80;66.60;;;;;;5005460;28;20929;-68
2022/08/24 09:33:49;;;;;;;7.37;7.00;;;28.90;65.90;;;;;;4991960;28;20893;-68
2022/08/24 09:36:50;;;;;;;8.40;7.60;;;29.00;68.90;;;;;;5006739;28;20429;-68
2022/08/24 09:39:35;;;;;;;5.93;5.43;;;29.30;69.20;;;;;;5003804;28;20425;-68
2022/08/24 09:42:29;;;;;;;8.30;7.70;;;29.50;65.90;;;;;;5004764;28;20460;-68
2022/08/24 09:45:06;;;;;;;6.10;5.60;;;29.70;66.10;;;;;;5001404;28;20411;-68
2022/08/24 09:48:17;;;;;;;8.83;7.60;;;29.90;66.50;;;;;;5001521;28;20407;-67
2022/08/24 09:51:08;;;;;;;6.00;5.50;;;30.10;65.60;;;;;;4999975;28;21010;-68
2022/08/24 09:53:56;;;;;;;6.77;6.37;;;30.40;66.90;;;;;;5003313;28;20839;-68
2022/08/24 09:56:43;;;;;;;6.00;5.43;;;30.60;64.70;;;;;;4995186;28;20927;-68
2022/08/24 09:59:23;;;;;;;5.40;5.00;;;30.80;64.90;;;;;;5013479;28;20500;-68
2022/08/24 10:02:09;;;;;;;8.43;7.60;;;31.00;63.30;;;;;;5003851;28;20477;-68
2022/08/24 10:04:43;;;;;;;7.00;6.50;;;31.00;60.90;;;;;;5011561;28;20458;-68
2022/08/24 10:07:30;;;;;;;6.90;6.20;;;31.10;62.80;;;;;;5013408;28;20409;-68
2022/08/24 10:10:19;;;;;;;9.40;5.87;;;31.30;61.80;;;;;;5010876;28;20425;-68
2022/08/24 10:13:17;;;;;;;5.90;5.50;;;31.50;62.60;;;;;;5011501;28;20553;-68
2022/08/24 10:16:02;;;;;;;6.50;5.83;;;31.60;61.20;;;;;;5012794;28;20398;-68
2022/08/24 10:19:08;;;;;;;6.67;6.17;;;31.70;60.30;;;;;;5010363;28;20757;-68
2022/08/24 10:22:07;;;;;;;8.40;7.63;;;31.80;59.60;;;;;;5012695;28;20434;-68
2022/08/24 10:24:52;;;;;;;6.40;5.90;;;32.00;58.30;;;;;;5012171;28;20468;-68
2022/08/24 10:27:42;;;;;;;7.57;7.03;;;32.10;58.80;;;;;;5012777;28;20492;-68
2022/08/24 10:30:14;;;;;;;7.40;6.70;;;32.30;57.80;;;;;;5012503;28;20422;-68
2022/08/24 10:32:48;;;;;;;6.93;6.43;;;32.40;57.70;;;;;;5012079;28;20493;-68
2022/08/24 10:35:27;;;;;;;7.13;6.60;;;32.50;56.70;;;;;;5012636;28;20417;-68
2022/08/24 10:39:39;;;;;;;7.00;6.40;;;32.50;55.80;;;;;;5011972;28;20442;-68
2022/08/24 10:40:46;;;;;;;9.50;8.83;;;32.50;55.40;;;;;;4993486;28;20427;-67
2022/08/24 10:43:33;;;;;;;8.90;8.00;;;32.60;56.00;;;;;;5006378;28;20460;-68
2022/08/24 10:45:59;;;;;;;6.37;5.87;;;32.70;56.10;;;;;;5005318;28;20429;-68
2022/08/24 10:48:31;;;;;;;9.40;8.70;;;32.80;55.90;;;;;;5004936;28;20418;-68
2022/08/24 10:51:33;;;;;;;6.90;6.40;;;32.90;55.80;;;;;;5002502;28;20913;-68
2022/08/24 10:53:59;;;;;;;8.77;7.83;;;33.00;53.50;;;;;;4999548;28;20445;-67
2022/08/24 10:56:51;;;;;;;8.07;7.47;;;33.10;54.00;;;;;;5003361;28;20436;-68
2022/08/24 10:59:32;;;;;;;7.47;7.07;;;33.30;55.50;;;;;;4942318;29;20420;-68
2022/08/24 11:02:11;;;;;;;8.27;7.60;;;33.40;55.70;;;;;;4943469;29;20448;-67
2022/08/24 11:04:38;;;;;;;8.20;7.63;;;33.50;55.00;;;;;;4942164;29;20433;-68
2022/08/24 11:07:06;;;;;;;7.53;7.03;;;33.60;54.80;;;;;;4940028;29;20805;-67
2022/08/24 11:10:08;;;;;;;6.83;6.33;;;33.70;54.40;;;;;;4940854;29;20426;-67
2022/08/24 11:12:38;;;;;;;6.67;6.23;;;33.70;55.10;;;;;;4944817;29;20502;-63
2022/08/24 11:15:17;;;;;;;7.23;6.83;;;33.80;54.20;;;;;;4919019;29;20540;-63
2022/08/24 11:18:12;;;;;;;7.80;7.10;;;33.90;54.00;;;;;;4950425;29;20831;-64
2022/08/24 11:20:45;;;;;;;8.10;7.60;;;34.10;54.70;;;;;;4937704;29;20492;-63
2022/08/24 11:23:33;;;;;;;6.50;6.10;;;34.10;51.30;;;;;;4950077;29;20448;-63
2022/08/24 11:26:11;;;;;;;7.80;7.40;;;34.10;51.40;;;;;;4950320;29;20534;-63
2022/08/24 11:28:45;;;;;;;6.83;6.43;;;34.10;50.60;;;;;;4949837;28;20421;-63
2022/08/24 11:31:30;;;;;;;7.30;6.70;;;34.10;50.70;;;;;;5007663;28;20536;-64
2022/08/24 11:34:09;;;;;;;7.40;6.90;;;34.10;51.00;;;;;;5014816;28;20442;-63
2022/08/24 11:36:37;;;;;;;7.87;7.27;;;34.10;51.20;;;;;;5012752;28;20491;-63
2022/08/24 11:39:25;;;;;;;8.20;7.60;;;34.20;50.60;;;;;;5010938;28;20441;-66
2022/08/24 11:42:08;;;;;;;6.60;6.30;;;34.10;50.20;;;;;;5009727;28;20457;-63
2022/08/24 11:45:07;;;;;;;7.83;7.30;;;34.10;48.50;;;;;;4997577;28;20432;-62
2022/08/24 11:48:01;;;;;;;8.47;8.07;;;34.00;48.50;;;;;;4981835;28;20537;-63
2022/08/24 11:50:42;;;;;;;7.57;7.07;;;34.10;50.40;;;;;;5012990;28;20419;-64
2022/08/24 11:53:32;;;;;;;6.73;6.30;;;34.00;47.70;;;;;;5012161;28;20930;-63
2022/08/24 11:56:03;;;;;;;6.13;5.83;;;33.80;49.10;;;;;;5015317;28;20390;-63
2022/08/24 11:58:44;;;;;;;6.63;6.13;;;33.90;49.30;;;;;;5011576;28;20411;-68
2022/08/24 12:01:13;;;;;;;6.57;6.10;;;33.90;48.50;;;;;;5015035;28;20493;-62
2022/08/24 12:04:16;;;;;;;8.57;7.80;;;33.90;50.10;;;;;;5013466;28;20972;-63
2022/08/24 12:06:48;;;;;;;8.43;7.70;;;34.00;50.70;;;;;;5014961;28;20468;-62
2022/08/24 12:09:26;;;;;;;8.10;7.60;;;34.00;50.00;;;;;;5013722;28;20520;-70
2022/08/24 12:12:10;;;;;;;8.93;8.27;;;34.10;51.20;;;;;;5015113;28;20456;-63
2022/08/24 12:14:46;;;;;;;10.03;9.03;;;34.20;50.90;;;;;;5005870;28;20492;-63
2022/08/24 12:17:21;;;;;;;8.27;7.60;;;34.30;50.30;;;;;;4995108;28;20407;-64
2022/08/24 12:19:51;;;;;;;8.30;7.90;;;34.30;50.00;;;;;;5008376;28;20965;-65
2022/08/24 12:22:19;;;;;;;7.40;6.87;;;34.30;49.80;;;;;;4995481;28;20474;-70
2022/08/24 12:24:55;;;;;;;8.00;7.50;;;34.20;50.00;;;;;;5014559;28;20414;-63
2022/08/24 12:27:32;;;;;;;5.83;5.47;;;34.20;49.80;;;;;;4930844;28;20414;-63
2022/08/24 12:30:08;;;;;;;7.33;6.83;;;34.20;48.80;;;;;;5011775;28;20409;-63
2022/08/24 12:32:50;;;;;;;8.07;7.60;;;34.20;48.60;;;;;;5003636;28;20470;-63
2022/08/24 12:35:46;;;;;;;8.77;8.27;;;34.10;49.90;;;;;;4999049;28;20430;-69
2022/08/24 12:38:23;;;;;;;9.27;8.87;;;34.10;50.40;;;;;;5000882;28;20431;-63
2022/08/24 12:41:00;;;;;;;10.00;9.30;;;34.20;49.30;;;;;;5014074;28;20395;-62
2022/08/24 12:43:39;;;;;;;13.17;12.17;;;34.20;48.20;;;;;;5013076;28;20469;-63
2022/08/24 12:46:05;;;;;;;7.00;6.30;;;34.20;48.10;;;;;;5014873;28;20410;-63
2022/08/24 12:49:03;;;;;;;7.13;6.60;;;34.20;47.70;;;;;;5010028;28;20513;-64
2022/08/24 12:52:01;;;;;;;6.93;6.50;;;33.70;47.30;;;;;;4981992;28;20431;-62
2022/08/24 12:54:45;;;;;;;7.40;7.00;;;33.60;49.50;;;;;;5002396;28;20465;-62
2022/08/24 12:57:36;;;;;;;9.17;8.60;;;33.60;50.60;;;;;;4997154;28;20847;-62
2022/08/24 13:00:08;;;;;;;7.13;6.73;;;33.60;49.90;;;;;;5025118;28;20745;-62
2022/08/24 13:02:44;;;;;;;8.47;7.67;;;33.50;50.20;;;;;;5010464;28;20848;-62
2022/08/24 13:05:19;;;;;;;7.20;6.67;;;33.50;49.50;;;;;;5009945;28;20488;-63
2022/08/24 13:07:48;;;;;;;7.30;6.60;;;33.50;49.70;;;;;;5011181;28;20414;-63